Time,TemperatureF,DewpointF,PressureIn,WindDirection,WindDirectionDegrees,WindSpeedMPH,WindSpeedGustMPH,Humidity,HourlyPrecipIn,Conditions,Clouds,dailyrainin,SoftwareType,DateUTC
2013-01-17 00:01:00,28.1,14.4,29.44,SSW,203,0.0,0.0,52,0.00,,,0.00,WSDL version 426,2013-01-17 06:01:00,
2013-01-17 00:06:00,28.0,14.4,29.44,SSW,203,0.0,0.0,52,0.00,,,0.00,WSDL version 426,2013-01-17 06:06:00,
2013-01-17 00:11:00,27.9,14.2,29.44,SSW,203,0.0,0.0,52,0.00,,,0.00,WSDL version 426,2013-01-17 06:11:00,
2013-01-17 00:16:00,27.9,14.2,29.44,SSW,203,0.0,0.0,52,0.00,,,0.00,WSDL version 426,2013-01-17 06:16:00,
2013-01-17 00:21:00,27.9,14.3,29.44,SSW,203,0.0,0.0,53,0.00,,,0.00,WSDL version 426,2013-01-17 06:21:00,
2013-01-17 00:26:00,27.9,14.4,29.44,SSW,203,0.0,0.0,53,0.00,,,0.00,WSDL version 426,2013-01-17 06:26:00,
2013-01-17 00:31:00,27.9,14.6,29.44,South,180,0.0,0.0,53,0.00,,,0.00,WSDL version 426,2013-01-17 06:31:00,
2013-01-17 00:36:00,27.9,14.6,29.44,SSE,158,0.0,0.0,53,0.00,,,0.00,WSDL version 426,2013-01-17 06:36:00,
2013-01-17 00:41:00,27.8,14.6,29.44,South,183,0.0,0.0,53,0.00,,,0.00,WSDL version 426,2013-01-17 06:41:00,
2013-01-17 00:46:00,27.7,14.4,29.44,SSW,203,0.0,0.0,53,0.00,,,0.00,WSDL version 426,2013-01-17 06:46:00,
2013-01-17 00:51:00,27.7,14.4,29.44,SSW,203,0.0,0.0,53,0.00,,,0.00,WSDL version 426,2013-01-17 06:51:00,
2013-01-17 00:56:00,27.7,14.5,29.47,SSW,206,0.0,0.0,53,0.00,,,0.00,WSDL version 426,2013-01-17 06:56:00,
2013-01-17 01:01:00,27.7,14.4,29.47,SSW,203,0.0,0.0,53,0.00,,,0.00,WSDL version 426,2013-01-17 07:01:00,
2013-01-17 01:06:00,27.5,14.6,29.47,SSW,203,0.0,0.0,54,0.00,,,0.00,WSDL version 426,2013-01-17 07:06:00,
2013-01-17 01:11:00,27.4,14.4,29.47,SSW,197,0.0,0.0,54,0.00,,,0.00,WSDL version 426,2013-01-17 07:11:00,
2013-01-17 01:16:00,27.3,14.5,29.47,SSE,158,0.0,0.0,54,0.00,,,0.00,WSDL version 426,2013-01-17 07:16:00,
2013-01-17 01:21:00,27.3,14.4,29.47,SE,140,0.2,1.3,54,0.00,,,0.00,WSDL version 426,2013-01-17 07:21:00,
2013-01-17 01:26:00,27.1,14.3,29.47,SSE,148,0.0,1.3,54,0.00,,,0.00,WSDL version 426,2013-01-17 07:26:00,
2013-01-17 01:31:00,27.1,14.2,29.47,SE,135,0.0,1.1,53,0.00,,,0.00,WSDL version 426,2013-01-17 07:31:00,
2013-01-17 01:37:00,27.0,14.1,29.47,SE,135,0.0,0.0,54,0.00,,,0.00,WSDL version 426,2013-01-17 07:37:00,
2013-01-17 01:42:00,27.1,14.2,29.47,SE,135,0.0,1.6,53,0.00,,,0.00,WSDL version 426,2013-01-17 07:42:00,
2013-01-17 01:47:00,27.3,14.1,29.47,South,191,0.0,1.6,53,0.00,,,0.00,WSDL version 426,2013-01-17 07:47:00,
2013-01-17 01:52:00,27.2,14.0,29.47,SW,225,0.0,0.0,53,0.00,,,0.00,WSDL version 426,2013-01-17 07:52:00,
2013-01-17 01:57:00,27.1,13.8,29.47,SW,225,0.5,2.5,53,0.00,,,0.00,WSDL version 426,2013-01-17 07:57:00,
2013-01-17 02:02:00,27.0,13.7,29.47,NW,321,1.1,2.9,53,0.00,,,0.00,WSDL version 426,2013-01-17 08:02:00,
2013-01-17 02:07:00,27.0,13.7,29.47,North,360,0.0,2.9,53,0.00,,,0.00,WSDL version 426,2013-01-17 08:07:00,
2013-01-17 02:12:00,26.9,13.9,29.47,North,349,0.0,2.0,53,0.00,,,0.00,WSDL version 426,2013-01-17 08:12:00,
2013-01-17 02:17:00,26.8,13.9,29.47,NNE,23,0.0,1.6,54,0.00,,,0.00,WSDL version 426,2013-01-17 08:17:00,
2013-01-17 02:22:00,26.6,14.0,29.47,NNE,23,0.0,0.0,55,0.00,,,0.00,WSDL version 426,2013-01-17 08:22:00,
2013-01-17 02:27:00,26.5,14.0,29.47,NE,56,0.0,0.0,55,0.00,,,0.00,WSDL version 426,2013-01-17 08:27:00,
2013-01-17 02:32:00,26.4,14.3,29.47,ENE,63,0.0,0.0,56,0.00,,,0.00,WSDL version 426,2013-01-17 08:32:00,
2013-01-17 02:37:00,26.2,14.2,29.47,NNW,338,0.0,0.0,56,0.00,,,0.00,WSDL version 426,2013-01-17 08:37:00,
2013-01-17 02:42:00,26.2,14.2,29.50,NNW,338,0.0,0.0,56,0.00,,,0.00,WSDL version 426,2013-01-17 08:42:00,
2013-01-17 02:47:00,26.2,14.1,29.50,WSW,242,0.0,0.0,56,0.00,,,0.00,WSDL version 426,2013-01-17 08:47:00,
2013-01-17 02:52:00,26.1,14.0,29.50,WSW,248,0.0,0.0,56,0.00,,,0.00,WSDL version 426,2013-01-17 08:52:00,
2013-01-17 02:57:00,26.1,14.0,29.50,WSW,248,0.0,0.0,56,0.00,,,0.00,WSDL version 426,2013-01-17 08:57:00,
2013-01-17 03:02:00,25.9,13.8,29.50,WSW,248,0.0,0.0,56,0.00,,,0.00,WSDL version 426,2013-01-17 09:02:00,
2013-01-17 03:07:00,25.8,13.8,29.50,East,101,0.0,0.0,56,0.00,,,0.00,WSDL version 426,2013-01-17 09:07:00,
2013-01-17 03:12:00,25.6,13.9,29.50,East,90,0.0,0.0,57,0.00,,,0.00,WSDL version 426,2013-01-17 09:12:00,
2013-01-17 03:17:00,25.4,13.7,29.50,East,90,0.0,0.0,57,0.00,,,0.00,WSDL version 426,2013-01-17 09:17:00,
2013-01-17 03:22:00,25.3,13.7,29.50,South,174,0.0,0.0,57,0.00,,,0.00,WSDL version 426,2013-01-17 09:22:00,
2013-01-17 03:27:00,25.3,13.7,29.50,SSW,213,0.0,0.0,57,0.00,,,0.00,WSDL version 426,2013-01-17 09:27:00,
2013-01-17 03:32:00,25.3,13.6,29.50,SSW,203,0.0,0.0,57,0.00,,,0.00,WSDL version 426,2013-01-17 09:32:00,
2013-01-17 03:37:00,25.2,13.9,29.50,SSW,203,0.0,0.0,58,0.00,,,0.00,WSDL version 426,2013-01-17 09:37:00,
2013-01-17 03:42:00,25.0,13.7,29.50,West,263,0.0,0.0,58,0.00,,,0.00,WSDL version 426,2013-01-17 09:42:00,
2013-01-17 03:47:00,25.0,13.7,29.50,WNW,293,0.0,0.0,58,0.00,,,0.00,WSDL version 426,2013-01-17 09:47:00,
2013-01-17 03:52:00,24.8,13.8,29.50,WNW,293,0.0,0.0,59,0.00,,,0.00,WSDL version 426,2013-01-17 09:52:00,
2013-01-17 03:57:00,24.8,13.9,29.50,WNW,293,0.0,0.0,59,0.00,,,0.00,WSDL version 426,2013-01-17 09:57:00,
2013-01-17 04:02:00,24.7,13.8,29.50,WNW,285,0.0,0.0,59,0.00,,,0.00,WSDL version 426,2013-01-17 10:02:00,
2013-01-17 04:08:00,24.6,13.7,29.50,West,273,0.0,0.9,59,0.00,,,0.00,WSDL version 426,2013-01-17 10:08:00,
2013-01-17 04:13:00,24.6,13.8,29.53,West,267,0.0,1.6,59,0.00,,,0.00,WSDL version 426,2013-01-17 10:13:00,
2013-01-17 04:18:00,24.7,14.0,29.53,West,276,0.4,2.5,60,0.00,,,0.00,WSDL version 426,2013-01-17 10:18:00,
2013-01-17 04:23:00,24.9,14.3,29.53,WNW,287,0.2,2.5,60,0.00,,,0.00,WSDL version 426,2013-01-17 10:23:00,
2013-01-17 04:28:00,25.2,14.8,29.53,WNW,300,0.0,2.5,61,0.00,,,0.00,WSDL version 426,2013-01-17 10:28:00,
2013-01-17 04:34:00,25.4,15.1,29.53,WNW,293,0.0,1.3,61,0.00,,,0.00,WSDL version 426,2013-01-17 10:34:00,
2013-01-17 04:39:00,25.4,15.1,29.53,NW,321,0.0,1.6,61,0.00,,,0.00,WSDL version 426,2013-01-17 10:39:00,
2013-01-17 04:44:00,25.3,15.0,29.56,NNW,338,0.8,2.7,61,0.00,,,0.00,WSDL version 426,2013-01-17 10:44:00,
2013-01-17 04:49:00,25.8,15.7,29.56,NW,312,1.2,3.4,62,0.00,,,0.00,WSDL version 426,2013-01-17 10:49:00,
2013-01-17 04:54:00,26.5,16.9,29.56,NNW,338,1.4,3.4,63,0.00,,,0.00,WSDL version 426,2013-01-17 10:54:00,
2013-01-17 04:59:00,26.9,17.5,29.56,NNW,338,2.7,3.8,65,0.00,,,0.00,WSDL version 426,2013-01-17 10:59:00,
2013-01-17 05:04:00,27.9,19.3,29.56,NNW,340,4.2,5.8,68,0.00,,,0.00,WSDL version 426,2013-01-17 11:04:00,
2013-01-17 05:10:00,30.1,23.6,29.56,North,350,4.7,7.6,76,0.00,,,0.00,WSDL version 426,2013-01-17 11:10:00,
2013-01-17 05:15:00,31.6,25.6,29.56,NNW,347,5.0,8.5,77,0.00,,,0.00,WSDL version 426,2013-01-17 11:15:00,
2013-01-17 05:20:00,32.7,26.2,29.56,North,353,5.3,8.5,76,0.00,,,0.00,WSDL version 426,2013-01-17 11:20:00,
2013-01-17 05:25:00,33.4,26.3,29.56,North,352,4.0,7.2,74,0.00,,,0.00,WSDL version 426,2013-01-17 11:25:00,
2013-01-17 05:30:00,33.8,26.0,29.56,North,355,4.2,7.6,72,0.00,,,0.00,WSDL version 426,2013-01-17 11:30:00,
2013-01-17 05:35:00,34.0,25.5,29.56,North,357,4.4,8.5,70,0.00,,,0.00,WSDL version 426,2013-01-17 11:35:00,
2013-01-17 05:40:00,34.2,25.3,29.56,North,360,4.3,8.5,69,0.00,,,0.00,WSDL version 426,2013-01-17 11:40:00,
2013-01-17 05:45:00,34.3,25.0,29.56,North,353,4.3,7.6,68,0.00,,,0.00,WSDL version 426,2013-01-17 11:45:00,
2013-01-17 05:50:00,34.5,25.4,29.56,North,352,5.1,7.6,69,0.00,,,0.00,WSDL version 426,2013-01-17 11:50:00,
2013-01-17 05:55:00,34.8,25.7,29.56,North,349,5.4,8.5,69,0.00,,,0.00,WSDL version 426,2013-01-17 11:55:00,
2013-01-17 06:00:00,35.0,26.2,29.56,North,8,5.6,8.5,70,0.00,,,0.00,WSDL version 426,2013-01-17 12:00:00,
2013-01-17 06:05:00,35.5,26.4,29.56,North,360,5.5,7.8,69,0.00,,,0.00,WSDL version 426,2013-01-17 12:05:00,
2013-01-17 06:10:00,35.7,26.4,29.56,North,357,5.3,7.4,68,0.00,,,0.00,WSDL version 426,2013-01-17 12:10:00,
2013-01-17 06:15:00,35.7,26.1,29.59,North,350,5.5,7.8,67,0.00,,,0.00,WSDL version 426,2013-01-17 12:15:00,
2013-01-17 06:20:00,35.6,25.8,29.59,North,355,4.6,7.8,67,0.00,,,0.00,WSDL version 426,2013-01-17 12:20:00,
2013-01-17 06:25:00,35.6,25.6,29.59,North,354,4.9,6.3,67,0.00,,,0.00,WSDL version 426,2013-01-17 12:25:00,
2013-01-17 06:30:00,35.6,25.7,29.59,NNW,343,4.9,7.8,67,0.00,,,0.00,WSDL version 426,2013-01-17 12:30:00,
2013-01-17 06:35:00,35.8,25.9,29.59,NNW,343,5.7,10.7,67,0.00,,,0.00,WSDL version 426,2013-01-17 12:35:00,
2013-01-17 06:40:00,35.9,26.2,29.59,North,352,5.5,10.7,67,0.00,,,0.00,WSDL version 426,2013-01-17 12:40:00,
2013-01-17 06:45:00,36.0,26.1,29.59,North,349,6.2,8.7,67,0.00,,,0.00,WSDL version 426,2013-01-17 12:45:00,
2013-01-17 06:50:00,36.1,26.3,29.59,North,349,5.9,8.1,67,0.00,,,0.00,WSDL version 426,2013-01-17 12:50:00,
2013-01-17 06:55:00,36.2,26.4,29.59,North,352,6.3,9.2,67,0.00,,,0.00,WSDL version 426,2013-01-17 12:55:00,
2013-01-17 07:00:00,36.2,26.3,29.59,NNW,346,7.0,9.2,67,0.00,,,0.00,WSDL version 426,2013-01-17 13:00:00,
2013-01-17 07:05:00,36.3,26.3,29.59,NNW,340,5.4,8.9,66,0.00,,,0.00,WSDL version 426,2013-01-17 13:05:00,
2013-01-17 07:10:00,36.3,26.1,29.59,NNW,346,5.1,9.4,66,0.00,,,0.00,WSDL version 426,2013-01-17 13:10:00,
2013-01-17 07:15:00,36.3,26.1,29.62,NNW,335,6.2,9.4,66,0.00,,,0.00,WSDL version 426,2013-01-17 13:15:00,
2013-01-17 07:20:00,36.3,26.0,29.62,NNW,338,5.1,7.6,66,0.00,,,0.00,WSDL version 426,2013-01-17 13:20:00,
2013-01-17 07:25:00,36.3,26.0,29.62,NW,323,4.7,8.5,66,0.00,,,0.00,WSDL version 426,2013-01-17 13:25:00,
2013-01-17 07:30:00,36.3,25.8,29.62,NW,318,3.8,8.5,65,0.00,,,0.00,WSDL version 426,2013-01-17 13:30:00,
2013-01-17 07:35:00,36.1,25.2,29.62,NNW,332,3.4,6.5,64,0.00,,,0.00,WSDL version 426,2013-01-17 13:35:00,
2013-01-17 07:40:00,35.9,24.9,29.62,NNW,328,3.5,6.5,64,0.00,,,0.00,WSDL version 426,2013-01-17 13:40:00,
2013-01-17 07:45:00,35.7,24.8,29.62,NNW,338,3.5,5.6,64,0.00,,,0.00,WSDL version 426,2013-01-17 13:45:00,
2013-01-17 07:50:00,35.6,24.6,29.62,NNW,338,2.8,4.9,64,0.00,,,0.00,WSDL version 426,2013-01-17 13:50:00,
2013-01-17 07:55:00,35.4,24.5,29.62,NNW,338,1.7,4.0,64,0.00,,,0.00,WSDL version 426,2013-01-17 13:55:00,
2013-01-17 08:00:00,35.2,24.1,29.65,NNW,343,2.1,3.6,63,0.00,,,0.00,WSDL version 426,2013-01-17 14:00:00,
2013-01-17 08:05:00,35.1,23.9,29.65,NNW,340,2.4,3.8,64,0.00,,,0.00,WSDL version 426,2013-01-17 14:05:00,
2013-01-17 08:10:00,35.1,24.1,29.65,North,357,2.7,4.0,64,0.00,,,0.00,WSDL version 426,2013-01-17 14:10:00,
2013-01-17 08:15:00,35.4,24.9,29.65,North,354,4.0,6.5,66,0.00,,,0.00,WSDL version 426,2013-01-17 14:15:00,
2013-01-17 08:20:00,35.9,26.0,29.65,North,350,4.2,7.4,68,0.00,,,0.00,WSDL version 426,2013-01-17 14:20:00,
2013-01-17 08:25:00,36.3,26.4,29.65,North,360,4.6,7.4,67,0.00,,,0.00,WSDL version 426,2013-01-17 14:25:00,
2013-01-17 08:30:00,36.7,26.7,29.65,North,349,4.0,6.0,67,0.00,,,0.00,WSDL version 426,2013-01-17 14:30:00,
2013-01-17 08:35:00,37.0,27.1,29.65,NNW,346,5.2,7.2,67,0.00,,,0.00,WSDL version 426,2013-01-17 14:35:00,
2013-01-17 08:40:00,37.4,27.2,29.65,NNW,348,5.9,7.8,66,0.00,,,0.00,WSDL version 426,2013-01-17 14:40:00,
2013-01-17 08:45:00,37.9,27.5,29.65,NNW,334,5.6,7.8,65,0.00,,,0.00,WSDL version 426,2013-01-17 14:45:00,
2013-01-17 08:50:00,38.3,27.6,29.65,NNW,348,5.4,8.5,65,0.00,,,0.00,WSDL version 426,2013-01-17 14:50:00,
2013-01-17 08:55:00,38.8,27.7,29.65,North,349,5.8,8.5,64,0.00,,,0.00,WSDL version 426,2013-01-17 14:55:00,
2013-01-17 09:00:00,39.2,27.7,29.68,NNW,340,5.3,9.6,62,0.00,,,0.00,WSDL version 426,2013-01-17 15:00:00,
2013-01-17 09:05:00,39.7,27.6,29.68,North,354,6.4,9.6,61,0.00,,,0.00,WSDL version 426,2013-01-17 15:05:00,
2013-01-17 09:10:00,40.1,27.5,29.68,North,11,7.1,11.0,60,0.00,,,0.00,WSDL version 426,2013-01-17 15:10:00,
2013-01-17 09:15:00,40.6,27.6,29.68,NNE,15,6.5,11.0,59,0.00,,,0.00,WSDL version 426,2013-01-17 15:15:00,
2013-01-17 09:20:00,41.1,27.5,29.68,NNW,345,6.4,10.7,58,0.00,,,0.00,WSDL version 426,2013-01-17 15:20:00,
2013-01-17 09:25:00,41.6,27.5,29.68,North,360,5.9,10.7,57,0.00,,,0.00,WSDL version 426,2013-01-17 15:25:00,
2013-01-17 09:30:00,42.0,27.8,29.68,North,357,5.3,10.5,57,0.00,,,0.00,WSDL version 426,2013-01-17 15:30:00,
2013-01-17 09:35:00,42.3,27.3,29.68,North,354,9.9,12.8,54,0.00,,,0.00,WSDL version 426,2013-01-17 15:35:00,
2013-01-17 09:40:00,42.5,27.0,29.68,North,3,7.1,12.8,54,0.00,,,0.00,WSDL version 426,2013-01-17 15:40:00,
2013-01-17 09:45:00,42.9,27.2,29.68,NNE,20,7.6,13.0,53,0.00,,,0.00,WSDL version 426,2013-01-17 15:45:00,
2013-01-17 09:50:00,43.1,26.9,29.68,North,10,7.3,13.0,52,0.00,,,0.00,WSDL version 426,2013-01-17 15:50:00,
2013-01-17 09:55:00,43.4,26.9,29.68,North,360,7.9,12.3,52,0.00,,,0.00,WSDL version 426,2013-01-17 15:55:00,
2013-01-17 10:00:00,43.7,27.1,29.68,North,5,8.3,12.8,51,0.00,,,0.00,WSDL version 426,2013-01-17 16:00:00,
2013-01-17 10:05:00,43.9,27.0,29.68,NNE,17,8.9,12.8,51,0.00,,,0.00,WSDL version 426,2013-01-17 16:05:00,
2013-01-17 10:10:00,44.1,27.2,29.68,NNE,13,7.2,12.5,51,0.00,,,0.00,WSDL version 426,2013-01-17 16:10:00,
2013-01-17 10:15:00,44.4,27.0,29.71,North,8,6.7,12.5,50,0.00,,,0.00,WSDL version 426,2013-01-17 16:15:00,
2013-01-17 10:20:00,44.7,26.8,29.71,NNE,20,6.5,10.3,49,0.00,,,0.00,WSDL version 426,2013-01-17 16:20:00,
2013-01-17 10:25:00,45.0,27.0,29.71,NNE,20,7.1,11.0,49,0.00,,,0.00,WSDL version 426,2013-01-17 16:25:00,
2013-01-17 10:30:00,45.6,27.5,29.71,NNE,17,5.4,11.0,49,0.00,,,0.00,WSDL version 426,2013-01-17 16:30:00,
2013-01-17 10:35:00,46.2,27.8,29.71,NNE,17,6.8,10.7,48,0.00,,,0.00,WSDL version 426,2013-01-17 16:35:00,
2013-01-17 10:40:00,46.5,27.4,29.71,NNE,25,7.3,10.7,47,0.00,,,0.00,WSDL version 426,2013-01-17 16:40:00,
2013-01-17 10:45:00,46.7,27.2,29.71,North,3,5.9,11.0,46,0.00,,,0.00,WSDL version 426,2013-01-17 16:45:00,
2013-01-17 10:50:00,47.1,26.7,29.71,NNE,17,7.6,12.3,44,0.00,,,0.00,WSDL version 426,2013-01-17 16:50:00,
2013-01-17 10:55:00,47.2,26.3,29.71,North,10,9.0,12.8,43,0.00,,,0.00,WSDL version 426,2013-01-17 16:55:00,
2013-01-17 11:00:00,47.5,26.3,29.71,NNE,17,8.6,12.8,43,0.00,,,0.00,WSDL version 426,2013-01-17 17:00:00,
2013-01-17 11:05:00,47.6,26.1,29.71,NNE,17,8.0,12.8,43,0.00,,,0.00,WSDL version 426,2013-01-17 17:05:00,
2013-01-17 11:10:00,48.1,26.3,29.71,North,8,8.9,13.0,42,0.00,,,0.00,WSDL version 426,2013-01-17 17:10:00,
2013-01-17 11:15:00,48.4,25.8,29.71,North,352,8.9,13.0,41,0.00,,,0.00,WSDL version 426,2013-01-17 17:15:00,
2013-01-17 11:20:00,48.8,26.3,29.71,NNW,340,7.7,12.8,42,0.00,,,0.00,WSDL version 426,2013-01-17 17:20:00,
2013-01-17 11:25:00,49.4,26.7,29.71,North,6,8.1,13.2,41,0.00,,,0.00,WSDL version 426,2013-01-17 17:25:00,
2013-01-17 11:30:00,49.7,26.3,29.71,North,3,8.2,13.2,40,0.00,,,0.00,WSDL version 426,2013-01-17 17:30:00,
2013-01-17 11:35:00,50.1,26.2,29.71,NNW,348,8.8,13.2,39,0.00,,,0.00,WSDL version 426,2013-01-17 17:35:00,
2013-01-17 11:40:00,50.3,26.0,29.71,NNE,14,8.9,13.2,38,0.00,,,0.00,WSDL version 426,2013-01-17 17:40:00,
2013-01-17 11:45:00,50.5,25.8,29.71,NNE,13,8.6,13.2,38,0.00,,,0.00,WSDL version 426,2013-01-17 17:45:00,
2013-01-17 11:50:00,50.8,26.1,29.71,North,8,7.5,12.8,38,0.00,,,0.00,WSDL version 426,2013-01-17 17:50:00,
2013-01-17 11:55:00,51.1,26.4,29.71,North,360,9.2,12.3,38,0.00,,,0.00,WSDL version 426,2013-01-17 17:55:00,
2013-01-17 12:00:00,51.4,26.3,29.68,North,3,9.4,13.2,37,0.00,,,0.00,WSDL version 426,2013-01-17 18:00:00,
2013-01-17 12:05:00,51.7,26.3,29.68,North,350,7.7,13.2,37,0.00,,,0.00,WSDL version 426,2013-01-17 18:05:00,
2013-01-17 12:10:00,52.1,26.4,29.68,North,8,8.7,11.9,36,0.00,,,0.00,WSDL version 426,2013-01-17 18:10:00,
2013-01-17 12:15:00,52.2,26.1,29.68,North,6,8.9,13.0,36,0.00,,,0.00,WSDL version 426,2013-01-17 18:15:00,
2013-01-17 12:20:00,52.4,26.3,29.68,North,8,8.4,13.0,36,0.00,,,0.00,WSDL version 426,2013-01-17 18:20:00,
2013-01-17 12:25:00,52.9,26.6,29.68,NNW,347,7.4,12.8,36,0.00,,,0.00,WSDL version 426,2013-01-17 18:25:00,
2013-01-17 12:30:00,53.2,27.0,29.68,North,357,6.9,12.3,36,0.00,,,0.00,WSDL version 426,2013-01-17 18:30:00,
2013-01-17 12:35:00,53.1,26.7,29.68,North,350,10.3,14.8,35,0.00,,,0.00,WSDL version 426,2013-01-17 18:35:00,
2013-01-17 12:40:00,53.4,25.7,29.68,North,353,10.2,17.0,33,0.00,,,0.00,WSDL version 426,2013-01-17 18:40:00,
2013-01-17 12:45:00,53.5,25.2,29.68,North,8,7.7,17.0,33,0.00,,,0.00,WSDL version 426,2013-01-17 18:45:00,
2013-01-17 12:50:00,53.8,24.5,29.68,NNE,20,11.0,16.8,31,0.00,,,0.00,WSDL version 426,2013-01-17 18:50:00,
2013-01-17 12:55:00,54.1,24.5,29.68,North,5,7.8,16.8,31,0.00,,,0.00,WSDL version 426,2013-01-17 18:55:00,
2013-01-17 13:00:00,54.3,24.4,29.68,NNE,23,9.9,16.6,31,0.00,,,0.00,WSDL version 426,2013-01-17 19:00:00,
2013-01-17 13:05:00,54.5,24.8,29.68,North,360,7.9,17.4,31,0.00,,,0.00,WSDL version 426,2013-01-17 19:05:00,
2013-01-17 13:10:00,54.9,24.7,29.68,North,6,8.7,17.4,30,0.00,,,0.00,WSDL version 426,2013-01-17 19:10:00,
2013-01-17 13:15:00,55.2,24.9,29.68,North,353,9.5,15.2,30,0.00,,,0.00,WSDL version 426,2013-01-17 19:15:00,
2013-01-17 13:20:00,55.5,24.6,29.68,NNW,347,8.2,15.2,30,0.00,,,0.00,WSDL version 426,2013-01-17 19:20:00,
2013-01-17 13:25:00,56.1,25.0,29.68,North,6,9.4,13.4,29,0.00,,,0.00,WSDL version 426,2013-01-17 19:25:00,
2013-01-17 13:30:00,56.3,24.4,29.68,North,350,8.7,13.4,29,0.00,,,0.00,WSDL version 426,2013-01-17 19:30:00,
2013-01-17 13:35:00,56.3,24.4,29.68,North,354,8.7,19.5,29,0.00,,,0.00,WSDL version 426,2013-01-17 19:35:00,
2013-01-17 13:40:00,56.5,24.5,29.68,North,360,7.9,19.5,28,0.00,,,0.00,WSDL version 426,2013-01-17 19:40:00,
2013-01-17 13:45:00,56.4,24.0,29.68,North,3,9.9,17.4,28,0.00,,,0.00,WSDL version 426,2013-01-17 19:45:00,
2013-01-17 13:50:00,56.5,23.8,29.68,North,354,11.8,17.4,28,0.00,,,0.00,WSDL version 426,2013-01-17 19:50:00,
2013-01-17 13:55:00,56.7,24.0,29.68,NNW,343,10.6,17.2,28,0.00,,,0.00,WSDL version 426,2013-01-17 19:55:00,
2013-01-17 14:00:00,56.8,24.2,29.68,North,354,9.1,17.0,28,0.00,,,0.00,WSDL version 426,2013-01-17 20:00:00,
2013-01-17 14:05:00,57.1,24.3,29.68,NNW,345,9.6,17.0,28,0.00,,,0.00,WSDL version 426,2013-01-17 20:05:00,
2013-01-17 14:10:00,57.5,24.4,29.68,NNW,343,10.6,14.5,27,0.00,,,0.00,WSDL version 426,2013-01-17 20:10:00,
2013-01-17 14:15:00,57.6,24.0,29.68,NNE,17,10.9,14.5,27,0.00,,,0.00,WSDL version 426,2013-01-17 20:15:00,
2013-01-17 14:20:00,57.7,24.5,29.68,NNE,17,7.2,14.8,28,0.00,,,0.00,WSDL version 426,2013-01-17 20:20:00,
2013-01-17 14:25:00,58.0,24.5,29.68,NNE,14,9.4,14.8,28,0.00,,,0.00,WSDL version 426,2013-01-17 20:25:00,
2013-01-17 14:30:00,58.2,24.5,29.68,North,353,9.5,15.4,27,0.00,,,0.00,WSDL version 426,2013-01-17 20:30:00,
2013-01-17 14:35:00,58.4,24.6,29.68,North,6,9.5,15.4,27,0.00,,,0.00,WSDL version 426,2013-01-17 20:35:00,
2013-01-17 14:40:00,58.6,24.8,29.68,North,360,10.5,15.7,27,0.00,,,0.00,WSDL version 426,2013-01-17 20:40:00,
2013-01-17 14:45:00,58.9,25.0,29.65,NNE,23,9.1,15.7,27,0.00,,,0.00,WSDL version 426,2013-01-17 20:45:00,
2013-01-17 14:50:00,59.4,25.1,29.65,North,360,6.9,12.8,26,0.00,,,0.00,WSDL version 426,2013-01-17 20:50:00,
2013-01-17 14:55:00,59.5,24.6,29.65,North,354,8.8,14.8,26,0.00,,,0.00,WSDL version 426,2013-01-17 20:55:00,
2013-01-17 15:00:00,59.9,24.9,29.68,NNE,23,8.5,14.8,26,0.00,,,0.00,WSDL version 426,2013-01-17 21:00:00,
2013-01-17 15:05:00,60.1,25.1,29.68,North,10,8.5,12.8,26,0.00,,,0.00,WSDL version 426,2013-01-17 21:05:00,
2013-01-17 15:10:00,60.1,25.1,29.68,NNE,13,8.6,13.0,26,0.00,,,0.00,WSDL version 426,2013-01-17 21:10:00,
2013-01-17 15:15:00,60.7,25.6,29.68,North,10,7.1,13.0,26,0.00,,,0.00,WSDL version 426,2013-01-17 21:15:00,
2013-01-17 15:21:00,60.7,25.1,29.68,NNE,30,8.7,12.5,26,0.00,,,0.00,WSDL version 426,2013-01-17 21:21:00,
2013-01-17 15:26:00,60.7,25.1,29.68,NNE,20,7.6,12.5,25,0.00,,,0.00,WSDL version 426,2013-01-17 21:26:00,
2013-01-17 15:31:00,61.0,24.9,29.65,NNE,23,6.8,12.1,25,0.00,,,0.00,WSDL version 426,2013-01-17 21:31:00,
2013-01-17 15:36:00,61.5,25.4,29.65,NNE,15,5.9,12.1,25,0.00,,,0.00,WSDL version 426,2013-01-17 21:36:00,
2013-01-17 15:41:00,61.7,25.6,29.65,North,11,7.0,11.9,25,0.00,,,0.00,WSDL version 426,2013-01-17 21:41:00,
2013-01-17 15:46:00,61.5,25.4,29.68,North,10,7.2,11.9,25,0.00,,,0.00,WSDL version 426,2013-01-17 21:46:00,
2013-01-17 15:51:00,62.1,25.9,29.68,NNE,14,6.4,9.6,25,0.00,,,0.00,WSDL version 426,2013-01-17 21:51:00,
2013-01-17 15:56:00,62.5,25.9,29.68,North,5,5.8,10.3,24,0.00,,,0.00,WSDL version 426,2013-01-17 21:56:00,
2013-01-17 16:01:00,62.5,25.6,29.68,North,3,5.8,10.3,24,0.00,,,0.00,WSDL version 426,2013-01-17 22:01:00,
2013-01-17 16:06:00,62.5,25.6,29.68,North,352,6.8,10.7,24,0.00,,,0.00,WSDL version 426,2013-01-17 22:06:00,
2013-01-17 16:11:00,63.2,25.8,29.68,North,8,4.4,10.7,24,0.00,,,0.00,WSDL version 426,2013-01-17 22:11:00,
2013-01-17 16:16:00,63.7,26.2,29.68,North,8,5.1,8.5,24,0.00,,,0.00,WSDL version 426,2013-01-17 22:16:00,
2013-01-17 16:21:00,64.3,26.8,29.68,NNE,20,3.9,8.5,24,0.00,,,0.00,WSDL version 426,2013-01-17 22:21:00,
2013-01-17 16:26:00,64.1,26.6,29.68,NNE,26,6.0,10.3,24,0.00,,,0.00,WSDL version 426,2013-01-17 22:26:00,
2013-01-17 16:31:00,63.8,26.3,29.68,North,358,5.3,10.3,24,0.00,,,0.00,WSDL version 426,2013-01-17 22:31:00,
2013-01-17 16:36:00,64.0,26.5,29.68,North,8,4.5,10.3,24,0.00,,,0.00,WSDL version 426,2013-01-17 22:36:00,
2013-01-17 16:41:00,64.9,27.2,29.68,North,3,3.5,9.6,24,0.00,,,0.00,WSDL version 426,2013-01-17 22:41:00,
2013-01-17 16:46:00,64.5,26.8,29.68,NE,43,4.0,7.2,24,0.00,,,0.00,WSDL version 426,2013-01-17 22:46:00,
2013-01-17 16:51:00,64.7,26.9,29.68,NNE,20,4.4,7.2,23,0.00,,,0.00,WSDL version 426,2013-01-17 22:51:00,
2013-01-17 16:56:00,64.2,26.6,29.68,NNE,30,3.6,6.3,24,0.00,,,0.00,WSDL version 426,2013-01-17 22:56:00,
2013-01-17 17:01:00,64.1,26.6,29.68,NNE,28,3.0,5.8,24,0.00,,,0.00,WSDL version 426,2013-01-17 23:01:00,
2013-01-17 17:06:00,64.4,26.9,29.68,NE,35,3.6,6.0,24,0.00,,,0.00,WSDL version 426,2013-01-17 23:06:00,
2013-01-17 17:11:00,63.7,26.3,29.68,NE,45,3.5,6.3,24,0.00,,,0.00,WSDL version 426,2013-01-17 23:11:00,
2013-01-17 17:16:00,63.0,25.7,29.68,NE,45,3.5,6.3,24,0.00,,,0.00,WSDL version 426,2013-01-17 23:16:00,
2013-01-17 17:21:00,60.8,24.6,29.68,NE,45,3.1,4.9,25,0.00,,,0.00,WSDL version 426,2013-01-17 23:21:00,
2013-01-17 17:26:00,57.8,22.4,29.68,NE,48,2.5,4.9,26,0.00,,,0.00,WSDL version 426,2013-01-17 23:26:00,
2013-01-17 17:31:00,55.9,21.6,29.68,NE,43,2.7,4.0,26,0.00,,,0.00,WSDL version 426,2013-01-17 23:31:00,
2013-01-17 17:36:00,54.4,20.3,29.68,NE,42,2.5,4.0,26,0.00,,,0.00,WSDL version 426,2013-01-17 23:36:00,
2013-01-17 17:41:00,53.3,19.9,29.71,NE,43,2.0,3.4,27,0.00,,,0.00,WSDL version 426,2013-01-17 23:41:00,
2013-01-17 17:46:00,52.0,19.1,29.71,NE,45,2.3,3.1,27,0.00,,,0.00,WSDL version 426,2013-01-17 23:46:00,
2013-01-17 17:51:00,51.0,18.7,29.71,NE,42,2.3,3.4,28,0.00,,,0.00,WSDL version 426,2013-01-17 23:51:00,
2013-01-17 17:56:00,50.4,18.5,29.71,NE,43,1.6,3.4,28,0.00,,,0.00,WSDL version 426,2013-01-17 23:56:00,
2013-01-17 18:01:00,49.6,18.1,29.71,NE,45,1.3,2.9,29,0.00,,,0.00,WSDL version 426,2013-01-18 00:01:00,
2013-01-17 18:06:00,49.0,18.1,29.71,NE,45,1.6,2.5,29,0.00,,,0.00,WSDL version 426,2013-01-18 00:06:00,
2013-01-17 18:11:00,48.3,17.9,29.71,NE,45,0.6,2.7,30,0.00,,,0.00,WSDL version 426,2013-01-18 00:11:00,
2013-01-17 18:16:00,47.7,17.8,29.71,NE,45,0.0,2.7,30,0.00,,,0.00,WSDL version 426,2013-01-18 00:16:00,
2013-01-17 18:21:00,47.2,18.1,29.71,NE,45,1.2,1.6,31,0.00,,,0.00,WSDL version 426,2013-01-18 00:21:00,
2013-01-17 18:26:00,46.5,18.0,29.71,NE,45,0.0,1.6,33,0.00,,,0.00,WSDL version 426,2013-01-18 00:26:00,
2013-01-17 18:31:00,45.5,18.5,29.71,NNE,23,1.9,2.5,34,0.00,,,0.00,WSDL version 426,2013-01-18 00:31:00,
2013-01-17 18:36:00,44.9,19.0,29.71,NNE,23,0.4,2.7,36,0.00,,,0.00,WSDL version 426,2013-01-18 00:36:00,
2013-01-17 18:41:00,44.1,19.8,29.71,NNE,23,0.0,2.7,38,0.00,,,0.00,WSDL version 426,2013-01-18 00:41:00,
2013-01-17 18:46:00,43.4,19.5,29.71,NNE,23,0.0,0.0,38,0.00,,,0.00,WSDL version 426,2013-01-18 00:46:00,
2013-01-17 18:51:00,42.7,19.1,29.71,NNE,23,0.0,0.0,39,0.00,,,0.00,WSDL version 426,2013-01-18 00:51:00,
2013-01-17 18:56:00,42.0,18.8,29.71,NNE,23,0.0,0.0,39,0.00,,,0.00,WSDL version 426,2013-01-18 00:56:00,
2013-01-17 19:01:00,41.3,18.2,29.71,NNE,23,0.0,0.0,39,0.00,,,0.00,WSDL version 426,2013-01-18 01:01:00,
2013-01-17 19:06:00,40.6,18.1,29.71,NNE,23,0.0,0.0,40,0.00,,,0.00,WSDL version 426,2013-01-18 01:06:00,
2013-01-17 19:11:00,40.1,17.7,29.71,NNE,23,0.0,0.0,40,0.00,,,0.00,WSDL version 426,2013-01-18 01:11:00,
2013-01-17 19:16:00,39.7,17.3,29.71,NNE,23,0.0,0.0,40,0.00,,,0.00,WSDL version 426,2013-01-18 01:16:00,
2013-01-17 19:21:00,38.8,17.0,29.71,NNE,23,0.0,0.0,41,0.00,,,0.00,WSDL version 426,2013-01-18 01:21:00,
2013-01-17 19:26:00,38.2,16.5,29.74,SW,218,0.0,0.0,41,0.00,,,0.00,WSDL version 426,2013-01-18 01:26:00,
2013-01-17 19:31:00,38.1,16.8,29.74,SW,225,0.8,2.0,42,0.00,,,0.00,WSDL version 426,2013-01-18 01:31:00,
2013-01-17 19:36:00,37.3,16.5,29.74,SW,225,0.0,2.0,43,0.00,,,0.00,WSDL version 426,2013-01-18 01:36:00,
2013-01-17 19:41:00,36.5,16.2,29.74,SSW,210,0.0,1.1,43,0.00,,,0.00,WSDL version 426,2013-01-18 01:41:00,
2013-01-17 19:46:00,36.2,16.2,29.71,ENE,73,1.5,3.4,44,0.00,,,0.00,WSDL version 426,2013-01-18 01:46:00,
2013-01-17 19:51:00,35.9,16.2,29.71,ENE,68,0.0,3.4,45,0.00,,,0.00,WSDL version 426,2013-01-18 01:51:00,
2013-01-17 19:56:00,35.7,16.5,29.71,ENE,68,0.0,1.6,45,0.00,,,0.00,WSDL version 426,2013-01-18 01:56:00,
2013-01-17 20:01:00,35.5,16.6,29.71,South,190,0.0,0.0,46,0.00,,,0.00,WSDL version 426,2013-01-18 02:01:00,
2013-01-17 20:06:00,35.2,16.5,29.71,SW,236,0.0,0.9,46,0.00,,,0.00,WSDL version 426,2013-01-18 02:06:00,
2013-01-17 20:11:00,35.1,16.7,29.71,WSW,248,0.0,0.9,47,0.00,,,0.00,WSDL version 426,2013-01-18 02:11:00,
2013-01-17 20:16:00,35.0,16.8,29.71,West,268,0.0,0.9,47,0.00,,,0.00,WSDL version 426,2013-01-18 02:16:00,
2013-01-17 20:21:00,34.9,17.0,29.71,NNW,338,0.0,2.0,48,0.00,,,0.00,WSDL version 426,2013-01-18 02:21:00,
2013-01-17 20:26:00,34.7,17.3,29.71,NNW,338,0.0,2.0,49,0.00,,,0.00,WSDL version 426,2013-01-18 02:26:00,
2013-01-17 20:31:00,34.4,17.3,29.71,SSE,160,0.0,0.0,49,0.00,,,0.00,WSDL version 426,2013-01-18 02:31:00,
2013-01-17 20:36:00,34.2,17.5,29.71,SSE,158,0.0,0.0,50,0.00,,,0.00,WSDL version 426,2013-01-18 02:36:00,
2013-01-17 20:41:00,33.9,17.4,29.71,ESE,113,0.0,0.0,51,0.00,,,0.00,WSDL version 426,2013-01-18 02:41:00,
2013-01-17 20:46:00,33.7,17.5,29.74,ESE,113,0.0,0.0,51,0.00,,,0.00,WSDL version 426,2013-01-18 02:46:00,
2013-01-17 20:51:00,33.6,17.4,29.74,ESE,113,0.0,0.0,51,0.00,,,0.00,WSDL version 426,2013-01-18 02:51:00,
2013-01-17 20:56:00,33.6,17.4,29.74,ESE,113,0.0,0.0,51,0.00,,,0.00,WSDL version 426,2013-01-18 02:56:00,
2013-01-17 21:01:00,33.6,17.7,29.71,South,173,0.0,0.0,52,0.00,,,0.00,WSDL version 426,2013-01-18 03:01:00,
2013-01-17 21:06:00,33.6,17.9,29.71,South,180,0.0,0.0,52,0.00,,,0.00,WSDL version 426,2013-01-18 03:06:00,
2013-01-17 21:11:00,33.5,17.8,29.74,South,180,0.0,0.0,52,0.00,,,0.00,WSDL version 426,2013-01-18 03:11:00,
2013-01-17 21:16:00,33.3,17.5,29.74,South,180,0.0,0.0,52,0.00,,,0.00,WSDL version 426,2013-01-18 03:16:00,
2013-01-17 21:21:00,33.1,17.4,29.74,South,180,0.0,0.0,52,0.00,,,0.00,WSDL version 426,2013-01-18 03:21:00,
2013-01-17 21:26:00,32.8,17.1,29.74,South,180,0.0,0.0,52,0.00,,,0.00,WSDL version 426,2013-01-18 03:26:00,
2013-01-17 21:31:00,32.5,16.9,29.71,South,180,0.0,0.0,52,0.00,,,0.00,WSDL version 426,2013-01-18 03:31:00,
2013-01-17 21:36:00,32.4,16.8,29.71,South,180,0.0,0.0,53,0.00,,,0.00,WSDL version 426,2013-01-18 03:36:00,
2013-01-17 21:41:00,32.2,17.0,29.71,SSW,203,0.0,0.0,53,0.00,,,0.00,WSDL version 426,2013-01-18 03:41:00,
2013-01-17 21:46:00,32.2,16.9,29.71,SSW,203,0.0,0.0,53,0.00,,,0.00,WSDL version 426,2013-01-18 03:46:00,
2013-01-17 21:51:00,32.0,18.2,29.71,SSW,203,0.0,0.0,53,0.00,,,0.00,WSDL version 426,2013-01-18 03:51:00,
2013-01-17 21:56:00,31.6,18.3,29.74,SSW,203,0.0,0.0,54,0.00,,,0.00,WSDL version 426,2013-01-18 03:56:00,
2013-01-17 22:01:00,31.3,17.8,29.74,SSW,203,0.0,0.0,53,0.00,,,0.00,WSDL version 426,2013-01-18 04:01:00,
2013-01-17 22:06:00,31.1,17.8,29.74,SSW,203,0.0,0.0,54,0.00,,,0.00,WSDL version 426,2013-01-18 04:06:00,
2013-01-17 22:11:00,31.0,17.9,29.71,SSW,203,0.0,0.0,54,0.00,,,0.00,WSDL version 426,2013-01-18 04:11:00,
2013-01-17 22:16:00,30.8,18.0,29.71,SSW,203,0.0,0.0,55,0.00,,,0.00,WSDL version 426,2013-01-18 04:16:00,
2013-01-17 22:21:00,30.6,17.9,29.71,SSW,203,0.0,0.0,55,0.00,,,0.00,WSDL version 426,2013-01-18 04:21:00,
2013-01-17 22:26:00,30.4,18.1,29.71,SSW,203,0.0,0.0,56,0.00,,,0.00,WSDL version 426,2013-01-18 04:26:00,
2013-01-17 22:31:00,30.4,18.1,29.71,SSW,203,0.0,0.0,56,0.00,,,0.00,WSDL version 426,2013-01-18 04:31:00,
2013-01-17 22:36:00,30.4,18.2,29.71,SSW,203,0.0,0.0,57,0.00,,,0.00,WSDL version 426,2013-01-18 04:36:00,
2013-01-17 22:41:00,30.3,18.3,29.71,SSW,203,0.0,0.0,57,0.00,,,0.00,WSDL version 426,2013-01-18 04:41:00,
2013-01-17 22:46:00,30.3,18.2,29.71,SSW,203,0.0,0.0,56,0.00,,,0.00,WSDL version 426,2013-01-18 04:46:00,
2013-01-17 22:51:00,30.2,18.3,29.71,SSW,203,0.0,0.0,57,0.00,,,0.00,WSDL version 426,2013-01-18 04:51:00,
2013-01-17 22:56:00,30.0,18.1,29.71,SSW,203,0.0,0.0,57,0.00,,,0.00,WSDL version 426,2013-01-18 04:56:00,
2013-01-17 23:01:00,30.0,18.1,29.71,SSW,203,0.0,0.0,57,0.00,,,0.00,WSDL version 426,2013-01-18 05:01:00,
2013-01-17 23:02:00,30.0,18.1,29.71,SSW,203,0.0,0.0,57,0.00,,,0.00,WSDL version 426,2013-01-18 05:02:00,
2013-01-17 23:04:00,30.0,18.2,29.71,SSW,203,0.0,0.0,58,0.00,,,0.00,WSDL version 426,2013-01-18 05:04:00,
2013-01-17 23:08:00,29.8,18.2,29.71,SSW,203,0.0,0.0,58,0.00,,,0.00,WSDL version 426,2013-01-18 05:08:00,
2013-01-17 23:13:00,29.6,18.1,29.71,SSW,203,0.0,0.0,58,0.00,,,0.00,WSDL version 426,2013-01-18 05:13:00,
2013-01-17 23:18:00,29.5,18.0,29.71,SSW,203,0.0,0.0,58,0.00,,,0.00,WSDL version 426,2013-01-18 05:18:00,
2013-01-17 23:23:00,29.5,17.8,29.71,SSW,203,0.0,0.0,58,0.00,,,0.00,WSDL version 426,2013-01-18 05:23:00,
2013-01-17 23:28:00,29.6,18.1,29.71,SSW,203,0.0,0.0,59,0.00,,,0.00,WSDL version 426,2013-01-18 05:28:00,
2013-01-17 23:33:00,29.4,18.4,29.71,SSW,203,0.0,0.0,60,0.00,,,0.00,WSDL version 426,2013-01-18 05:33:00,
2013-01-17 23:38:00,29.2,18.2,29.71,SSW,203,0.0,0.0,59,0.00,,,0.00,WSDL version 426,2013-01-18 05:38:00,
2013-01-17 23:43:00,29.1,18.0,29.71,SSW,203,0.0,0.0,59,0.00,,,0.00,WSDL version 426,2013-01-18 05:43:00,
2013-01-17 23:48:00,28.9,17.8,29.71,SSW,203,0.0,0.0,59,0.00,,,0.00,WSDL version 426,2013-01-18 05:48:00,
2013-01-17 23:53:00,28.6,17.8,29.71,SSW,203,0.0,0.0,60,0.00,,,0.00,WSDL version 426,2013-01-18 05:53:00,
2013-01-17 23:58:00,28.4,17.6,29.71,SSW,203,0.0,0.0,60,0.00,,,0.00,WSDL version 426,2013-01-18 05:58:00,